Time;durP1;ratioP1;P1;durP2;ratioP2;P2;SDS_P1;SDS_P2;PMS_P1;PMS_P2;Temp;Humidity;BMP_temperature;BMP_pressure;BME280_temperature;BME280_humidity;BME280_pressure;Samples;Min_cycle;Max_cycle;Signal;HPM_P1;HPM_P2
2022/05/15 00:02:20;;;;;;;18.38;5.60;;;13.80;99.90;;;;;;5081749;28;20489;-63
2022/05/15 00:04:46;;;;;;;18.65;5.82;;;13.70;99.90;;;;;;5086768;28;20036;-62
2022/05/15 00:07:12;;;;;;;16.20;5.50;;;13.70;99.90;;;;;;5088280;28;20044;-62
2022/05/15 00:09:37;;;;;;;15.82;5.72;;;13.70;99.90;;;;;;5081376;28;20071;-63
2022/05/15 00:12:05;;;;;;;21.77;6.70;;;13.60;99.90;;;;;;5087425;28;20072;-65
2022/05/15 00:14:32;;;;;;;16.23;5.50;;;13.60;99.90;;;;;;5084904;28;20488;-62
2022/05/15 00:16:58;;;;;;;19.23;5.97;;;13.60;99.90;;;;;;5088088;28;20139;-63
2022/05/15 00:19:23;;;;;;;17.35;5.88;;;13.60;99.90;;;;;;5084411;28;20119;-64
2022/05/15 00:21:49;;;;;;;20.80;5.85;;;13.50;99.90;;;;;;5081958;28;20378;-64
2022/05/15 00:24:14;;;;;;;22.20;6.18;;;13.50;99.90;;;;;;5083781;28;20522;-63
2022/05/15 00:26:40;;;;;;;16.48;5.78;;;13.40;99.90;;;;;;5080159;28;20407;-64
2022/05/15 00:29:06;;;;;;;18.98;5.75;;;13.30;99.90;;;;;;5079790;28;20137;-65
2022/05/15 00:31:31;;;;;;;17.23;5.72;;;13.40;99.90;;;;;;5078154;28;20075;-63
2022/05/15 00:33:57;;;;;;;18.67;5.97;;;13.30;99.90;;;;;;5077276;28;20119;-63
2022/05/15 00:36:22;;;;;;;16.35;5.30;;;13.30;99.90;;;;;;5080621;28;20176;-63
2022/05/15 00:38:48;;;;;;;16.33;5.00;;;13.20;99.90;;;;;;5085366;28;20040;-63
2022/05/15 00:41:13;;;;;;;18.77;5.78;;;13.20;99.90;;;;;;5073550;28;20051;-63
2022/05/15 00:43:50;;;;;;;16.20;5.30;;;13.20;99.90;;;;;;5085714;28;20059;-63
2022/05/15 00:46:28;;;;;;;14.73;5.38;;;13.10;99.90;;;;;;5081796;28;20036;-64
2022/05/15 00:48:56;;;;;;;16.92;5.20;;;13.10;99.90;;;;;;5074394;28;20071;-65
2022/05/15 00:51:24;;;;;;;15.85;5.40;;;13.00;99.90;;;;;;5083531;28;20048;-63
2022/05/15 00:53:55;;;;;;;22.15;6.57;;;13.00;99.90;;;;;;5079695;28;20044;-63
2022/05/15 00:56:24;;;;;;;16.27;5.50;;;12.90;99.90;;;;;;5074260;28;20041;-62
2022/05/15 00:58:58;;;;;;;15.68;5.88;;;12.90;99.90;;;;;;5085105;28;20432;-62
2022/05/15 01:01:24;;;;;;;18.30;5.63;;;12.90;99.90;;;;;;5079715;28;20432;-64
2022/05/15 01:03:50;;;;;;;16.60;5.00;;;12.80;99.90;;;;;;5075184;28;20045;-63
2022/05/15 01:06:17;;;;;;;16.05;5.03;;;12.80;99.90;;;;;;5075376;28;20347;-65
2022/05/15 01:08:42;;;;;;;17.65;5.93;;;12.80;99.90;;;;;;5081273;28;20101;-64
2022/05/15 01:11:15;;;;;;;16.92;5.50;;;12.80;99.90;;;;;;5083548;28;20389;-63
2022/05/15 01:13:43;;;;;;;15.13;4.93;;;12.80;99.90;;;;;;5084934;28;20067;-63
2022/05/15 01:16:10;;;;;;;17.52;6.13;;;12.70;99.90;;;;;;5086771;28;20044;-64
2022/05/15 01:18:39;;;;;;;17.77;5.72;;;12.70;99.90;;;;;;5085504;28;20075;-64
2022/05/15 01:21:28;;;;;;;16.77;5.45;;;12.70;99.90;;;;;;5081701;28;20418;-62
2022/05/15 01:23:54;;;;;;;17.30;5.30;;;12.60;99.90;;;;;;5087535;28;20493;-63
2022/05/15 01:26:21;;;;;;;15.60;5.22;;;12.60;99.90;;;;;;5087029;28;20169;-65
2022/05/15 01:28:47;;;;;;;20.35;4.90;;;12.60;99.90;;;;;;5076893;28;20049;-63
2022/05/15 01:31:13;;;;;;;17.20;5.32;;;12.50;99.90;;;;;;5085539;28;20050;-65
2022/05/15 01:33:39;;;;;;;13.40;4.72;;;12.50;99.90;;;;;;5088025;28;20047;-64
2022/05/15 01:36:06;;;;;;;18.17;5.22;;;12.50;99.90;;;;;;5083376;28;20039;-63
2022/05/15 01:38:32;;;;;;;15.55;5.13;;;12.50;99.90;;;;;;5082592;28;20326;-65
2022/05/15 01:40:57;;;;;;;12.07;4.53;;;12.40;99.90;;;;;;5084228;28;20063;-63
2022/05/15 01:43:23;;;;;;;14.20;4.55;;;12.40;99.90;;;;;;5085678;28;20371;-62
2022/05/15 01:45:48;;;;;;;13.25;5.03;;;12.30;99.90;;;;;;5088541;28;20153;-61
2022/05/15 01:48:14;;;;;;;12.07;4.32;;;12.30;99.90;;;;;;5088929;28;20067;-62
2022/05/15 01:50:39;;;;;;;14.45;4.57;;;12.20;99.90;;;;;;5087136;28;20063;-61
2022/05/15 01:53:05;;;;;;;17.88;5.00;;;12.20;99.90;;;;;;5082380;28;20032;-63
2022/05/15 01:55:31;;;;;;;20.08;5.63;;;12.20;99.90;;;;;;5085158;28;20038;-64
2022/05/15 01:57:56;;;;;;;14.52;5.05;;;12.20;99.90;;;;;;5087073;28;20284;-63
2022/05/15 02:00:24;;;;;;;15.32;4.68;;;12.10;99.90;;;;;;5086262;28;20067;-62
2022/05/15 02:02:50;;;;;;;14.48;4.90;;;12.10;99.90;;;;;;5083522;28;20040;-62
2022/05/15 02:05:17;;;;;;;19.75;6.07;;;12.10;99.90;;;;;;5086202;28;20458;-62
2022/05/15 02:07:43;;;;;;;15.25;5.43;;;12.10;99.90;;;;;;5082671;28;20756;-62
2022/05/15 02:10:10;;;;;;;14.18;5.80;;;12.00;99.90;;;;;;5083062;28;20079;-62
2022/05/15 02:12:36;;;;;;;15.20;5.18;;;12.00;99.90;;;;;;5090125;28;20527;-61
2022/05/15 02:15:02;;;;;;;15.55;5.35;;;12.00;99.90;;;;;;5082840;28;20135;-65
2022/05/15 02:17:28;;;;;;;13.88;4.97;;;12.00;99.90;;;;;;5080079;28;20074;-63
2022/05/15 02:19:54;;;;;;;14.57;4.82;;;11.90;99.90;;;;;;5081423;28;20036;-62
2022/05/15 02:22:20;;;;;;;13.40;4.35;;;11.90;99.90;;;;;;5079261;28;20085;-64
2022/05/15 02:24:45;;;;;;;19.77;4.63;;;11.90;99.90;;;;;;5080188;28;20118;-60
2022/05/15 02:27:11;;;;;;;12.32;4.32;;;11.80;99.90;;;;;;5088736;28;20047;-61
2022/05/15 02:29:36;;;;;;;14.25;5.45;;;11.80;99.90;;;;;;5079968;28;20915;-61
2022/05/15 02:32:02;;;;;;;13.68;4.45;;;11.80;99.90;;;;;;5083707;28;20051;-62
2022/05/15 02:34:28;;;;;;;13.77;4.68;;;11.70;99.90;;;;;;5087135;28;20043;-62
2022/05/15 02:36:53;;;;;;;13.10;5.10;;;11.70;99.90;;;;;;5077815;28;20117;-64
2022/05/15 02:39:19;;;;;;;13.77;5.15;;;11.70;99.90;;;;;;5077474;28;20737;-63
2022/05/15 02:41:45;;;;;;;13.30;4.60;;;11.70;99.90;;;;;;5080954;28;20439;-63
2022/05/15 02:44:10;;;;;;;13.43;4.72;;;11.70;99.90;;;;;;5083773;28;20043;-63
2022/05/15 02:46:36;;;;;;;13.63;4.47;;;11.60;99.90;;;;;;5088327;28;20451;-62
2022/05/15 02:51:45;;;;;;;13.35;4.90;;;11.50;99.90;;;;;;5081636;28;20091;-63
2022/05/15 02:54:11;;;;;;;12.70;4.68;;;11.50;99.90;;;;;;5085742;28;20071;-63
2022/05/15 02:56:37;;;;;;;14.27;4.97;;;11.50;99.90;;;;;;5090538;28;20052;-62
2022/05/15 02:59:04;;;;;;;12.73;4.40;;;11.40;99.90;;;;;;5084944;28;20078;-65
2022/05/15 03:01:30;;;;;;;12.48;4.68;;;11.40;99.90;;;;;;5079291;28;20054;-65
2022/05/15 03:03:56;;;;;;;10.57;4.43;;;11.40;99.90;;;;;;5083734;28;20156;-64
2022/05/15 03:06:21;;;;;;;12.18;4.32;;;11.30;99.90;;;;;;5083808;28;20092;-66
2022/05/15 03:08:49;;;;;;;9.63;3.92;;;11.30;99.90;;;;;;5089489;28;20036;-63
2022/05/15 03:11:16;;;;;;;13.30;3.97;;;11.30;99.90;;;;;;5086424;28;20149;-63
2022/05/15 03:13:42;;;;;;;12.50;3.70;;;11.20;99.90;;;;;;5079341;28;20044;-63
2022/05/15 03:16:09;;;;;;;10.35;3.85;;;11.30;99.90;;;;;;5077056;28;20034;-64
2022/05/15 03:18:40;;;;;;;8.95;3.40;;;11.20;99.90;;;;;;5082387;28;20040;-63
2022/05/15 03:21:06;;;;;;;8.27;3.47;;;11.20;99.90;;;;;;5082147;28;20049;-63
2022/05/15 03:23:32;;;;;;;6.88;2.70;;;11.20;99.90;;;;;;5077270;28;20102;-63
2022/05/15 03:25:57;;;;;;;7.63;3.17;;;11.20;99.90;;;;;;5080038;28;20082;-66
2022/05/15 03:28:23;;;;;;;7.78;3.20;;;11.10;99.90;;;;;;5083994;28;20078;-63
2022/05/15 03:30:48;;;;;;;7.50;2.72;;;11.10;99.90;;;;;;5081013;28;20382;-64
2022/05/15 03:33:15;;;;;;;8.15;2.88;;;11.10;99.90;;;;;;5076200;28;20044;-63
2022/05/15 03:35:41;;;;;;;8.85;3.55;;;11.10;99.90;;;;;;5083742;28;20091;-63
2022/05/15 03:38:07;;;;;;;11.02;3.42;;;11.00;99.90;;;;;;5081201;28;20044;-63
2022/05/15 03:40:34;;;;;;;9.75;3.42;;;11.10;99.90;;;;;;5081605;28;20135;-64
2022/05/15 03:43:00;;;;;;;11.18;3.90;;;11.10;99.90;;;;;;5085528;28;20067;-64
2022/05/15 03:45:26;;;;;;;14.65;4.40;;;11.00;99.90;;;;;;5087280;28;20055;-63
2022/05/15 03:47:54;;;;;;;14.45;4.43;;;11.00;99.90;;;;;;5085412;28;20100;-63
2022/05/15 03:50:27;;;;;;;12.55;5.05;;;11.00;99.90;;;;;;5082347;28;20051;-64
2022/05/15 03:52:52;;;;;;;13.05;4.55;;;11.10;99.90;;;;;;5084647;28;20631;-63
2022/05/15 03:55:19;;;;;;;14.40;4.32;;;11.00;99.90;;;;;;5082471;28;20051;-64
2022/05/15 03:57:45;;;;;;;12.40;4.82;;;11.00;99.90;;;;;;5085666;28;20059;-63
2022/05/15 04:00:13;;;;;;;9.52;4.05;;;11.00;99.90;;;;;;5088105;28;20044;-62
2022/05/15 04:02:40;;;;;;;14.02;4.57;;;11.00;99.90;;;;;;5078539;28;20040;-61
2022/05/15 04:05:07;;;;;;;12.35;4.53;;;11.00;99.90;;;;;;5083670;28;20048;-61
2022/05/15 04:07:33;;;;;;;12.23;4.75;;;11.00;99.90;;;;;;5080862;28;20055;-62
2022/05/15 04:09:59;;;;;;;14.27;4.78;;;11.00;99.90;;;;;;5081792;28;20040;-64
2022/05/15 04:12:25;;;;;;;15.18;4.63;;;11.00;99.90;;;;;;5086648;28;20044;-62
2022/05/15 04:14:50;;;;;;;13.75;4.70;;;11.00;99.90;;;;;;5081326;28;20051;-62
2022/05/15 04:17:16;;;;;;;18.95;5.57;;;11.10;99.90;;;;;;5086622;28;20036;-62
2022/05/15 04:19:41;;;;;;;14.85;5.50;;;11.10;99.90;;;;;;5084633;28;20116;-63
2022/05/15 04:22:07;;;;;;;18.50;5.05;;;11.10;99.90;;;;;;5081708;28;20039;-63
2022/05/15 04:24:34;;;;;;;12.60;4.63;;;11.20;99.90;;;;;;5076794;28;20363;-64
2022/05/15 04:27:00;;;;;;;17.65;5.60;;;11.30;99.90;;;;;;5079324;28;20063;-62
2022/05/15 04:29:26;;;;;;;14.07;5.18;;;11.30;99.90;;;;;;5081399;28;20177;-62
2022/05/15 04:31:57;;;;;;;12.32;4.50;;;11.30;99.90;;;;;;5077174;28;20128;-63
2022/05/15 04:34:24;;;;;;;19.85;5.57;;;11.40;99.90;;;;;;5083660;28;20055;-63
2022/05/15 04:36:51;;;;;;;16.88;5.70;;;11.50;99.90;;;;;;5077936;28;20041;-61
2022/05/15 04:39:17;;;;;;;18.88;6.68;;;11.50;99.90;;;;;;5083470;28;20055;-62
2022/05/15 04:41:43;;;;;;;17.10;5.25;;;11.40;99.90;;;;;;5088184;28;20086;-63
2022/05/15 04:44:09;;;;;;;19.58;5.72;;;11.40;99.90;;;;;;5085006;28;20047;-62
2022/05/15 04:46:34;;;;;;;17.67;6.30;;;11.50;99.90;;;;;;5084080;28;20064;-63
2022/05/15 04:49:01;;;;;;;22.23;5.85;;;11.60;99.90;;;;;;5080520;28;20102;-63
2022/05/15 04:51:27;;;;;;;18.73;5.70;;;11.70;99.90;;;;;;5078003;28;20123;-62
2022/05/15 04:53:53;;;;;;;14.65;5.30;;;11.70;99.90;;;;;;5081153;28;20051;-64
2022/05/15 04:56:19;;;;;;;18.25;6.40;;;11.90;99.90;;;;;;5078010;28;20048;-64
2022/05/15 04:58:44;;;;;;;14.07;5.30;;;12.00;99.90;;;;;;5082413;28;20238;-62
2022/05/15 05:01:10;;;;;;;18.10;6.35;;;12.10;99.90;;;;;;5076455;28;20036;-64
2022/05/15 05:03:36;;;;;;;19.25;5.68;;;12.10;99.90;;;;;;5079839;28;20078;-63
2022/05/15 05:06:02;;;;;;;16.00;5.50;;;12.20;99.90;;;;;;5082925;28;20051;-65
2022/05/15 05:08:27;;;;;;;23.25;6.57;;;12.30;99.90;;;;;;5080494;28;20499;-64
2022/05/15 05:10:53;;;;;;;15.38;4.97;;;12.40;99.90;;;;;;5085749;28;20123;-63
2022/05/15 05:13:18;;;;;;;17.70;5.68;;;12.50;99.90;;;;;;5074286;28;20119;-62
2022/05/15 05:15:44;;;;;;;19.75;5.63;;;12.70;99.90;;;;;;5080936;28;20119;-61
2022/05/15 05:18:14;;;;;;;15.55;5.60;;;12.80;99.90;;;;;;5083125;28;20044;-63
2022/05/15 05:20:39;;;;;;;16.60;5.78;;;12.90;99.90;;;;;;5083624;28;20117;-62
2022/05/15 05:23:05;;;;;;;14.20;5.10;;;12.90;99.90;;;;;;5080487;28;20111;-62
2022/05/15 05:25:30;;;;;;;20.40;6.43;;;13.00;99.90;;;;;;5084428;28;20044;-61
2022/05/15 05:27:56;;;;;;;16.80;5.63;;;13.20;99.90;;;;;;5081947;28;20036;-63
2022/05/15 05:30:23;;;;;;;15.55;5.45;;;13.20;99.90;;;;;;5083795;28;21566;-62
2022/05/15 05:32:49;;;;;;;17.35;5.47;;;13.40;99.90;;;;;;5080462;28;20090;-64
2022/05/15 05:35:17;;;;;;;23.27;6.60;;;13.50;99.90;;;;;;5079539;28;20062;-62
2022/05/15 05:37:43;;;;;;;18.08;5.47;;;13.60;99.90;;;;;;5074079;28;20131;-62
2022/05/15 05:40:10;;;;;;;19.73;5.88;;;13.70;99.90;;;;;;5082095;28;20182;-62
2022/05/15 05:42:36;;;;;;;17.10;5.28;;;13.70;99.90;;;;;;5079588;28;20055;-63
2022/05/15 05:45:02;;;;;;;18.55;5.22;;;13.90;99.90;;;;;;5071938;28;20048;-62
2022/05/15 05:47:30;;;;;;;17.23;4.90;;;13.90;99.90;;;;;;5082410;28;20050;-63
2022/05/15 05:49:55;;;;;;;19.77;5.25;;;14.00;99.90;;;;;;5073634;28;20127;-63
2022/05/15 05:52:22;;;;;;;16.58;5.18;;;14.10;99.90;;;;;;5073465;28;20218;-63
2022/05/15 05:54:48;;;;;;;18.85;5.95;;;14.30;99.90;;;;;;5081099;28;20374;-63
2022/05/15 05:57:13;;;;;;;17.52;5.57;;;14.40;99.90;;;;;;5085911;28;20056;-64
2022/05/15 05:59:39;;;;;;;17.10;5.28;;;14.40;99.90;;;;;;5087491;28;20048;-63
2022/05/15 06:02:06;;;;;;;18.40;5.45;;;14.50;99.90;;;;;;5079562;28;20047;-61
2022/05/15 06:04:44;;;;;;;16.65;5.20;;;14.60;99.90;;;;;;5086758;28;20071;-63
2022/05/15 06:07:22;;;;;;;18.77;5.75;;;14.70;99.90;;;;;;5089122;28;20044;-63
2022/05/15 06:09:49;;;;;;;19.30;5.70;;;14.80;99.90;;;;;;5089797;28;20048;-64
2022/05/15 06:12:17;;;;;;;17.30;4.78;;;14.90;99.90;;;;;;5087753;28;20052;-62
2022/05/15 06:14:43;;;;;;;19.20;5.57;;;15.00;99.90;;;;;;5091447;28;20044;-63
2022/05/15 06:17:09;;;;;;;18.08;5.30;;;15.00;99.90;;;;;;5084532;28;20055;-63
2022/05/15 06:19:35;;;;;;;18.02;4.82;;;15.10;99.90;;;;;;5085672;28;20032;-61
2022/05/15 06:22:01;;;;;;;17.45;5.15;;;15.20;99.90;;;;;;5084549;28;20036;-62
2022/05/15 06:24:27;;;;;;;16.33;5.00;;;15.20;99.90;;;;;;5084102;28;20047;-62
2022/05/15 06:26:53;;;;;;;16.52;5.00;;;15.30;99.90;;;;;;5086723;28;20055;-62
2022/05/15 06:29:18;;;;;;;16.67;4.90;;;15.40;99.90;;;;;;5080977;28;20040;-63
2022/05/15 06:31:44;;;;;;;20.23;5.95;;;15.40;99.90;;;;;;5079399;28;20042;-63
2022/05/15 06:34:10;;;;;;;14.88;4.60;;;15.60;99.90;;;;;;5079155;28;20048;-63
2022/05/15 06:36:36;;;;;;;14.18;4.60;;;15.60;99.90;;;;;;5085318;28;20040;-65
2022/05/15 06:39:02;;;;;;;18.05;5.00;;;15.70;99.90;;;;;;5089835;28;20040;-66
2022/05/15 06:41:28;;;;;;;16.60;4.68;;;15.70;99.90;;;;;;5087905;28;20032;-63
2022/05/15 06:43:54;;;;;;;12.65;5.05;;;15.80;99.90;;;;;;5087420;28;20171;-62
2022/05/15 06:46:19;;;;;;;14.27;4.40;;;15.90;99.90;;;;;;5085823;28;20343;-64
2022/05/15 06:48:45;;;;;;;15.18;4.70;;;16.00;99.90;;;;;;5088827;28;20143;-63
2022/05/15 06:51:14;;;;;;;15.27;4.72;;;16.10;99.90;;;;;;5084595;28;20044;-63
2022/05/15 06:53:40;;;;;;;17.40;5.05;;;16.20;99.90;;;;;;5080963;28;20044;-65
2022/05/15 06:58:51;;;;;;;18.90;4.90;;;16.40;99.90;;;;;;5080290;28;20063;-63
2022/05/15 07:01:16;;;;;;;12.43;4.10;;;16.40;99.90;;;;;;5076026;28;20084;-63
2022/05/15 07:03:42;;;;;;;14.20;4.38;;;16.60;99.90;;;;;;5085849;28;20099;-63
2022/05/15 07:06:10;;;;;;;10.45;3.65;;;16.70;99.90;;;;;;5082700;28;20470;-63
2022/05/15 07:08:36;;;;;;;13.30;3.95;;;16.80;99.90;;;;;;5070519;28;20467;-61
2022/05/15 07:11:01;;;;;;;15.13;4.32;;;17.00;99.90;;;;;;5083922;28;20047;-65
2022/05/15 07:13:27;;;;;;;11.75;4.15;;;17.00;99.90;;;;;;5083511;28;20084;-61
2022/05/15 07:15:52;;;;;;;15.80;4.35;;;17.10;99.90;;;;;;5085399;28;20043;-62
2022/05/15 07:18:18;;;;;;;11.98;4.20;;;17.20;99.90;;;;;;5086370;28;20036;-63
2022/05/15 07:20:43;;;;;;;18.95;4.25;;;17.20;99.90;;;;;;5084591;28;20115;-63
2022/05/15 07:23:09;;;;;;;11.90;4.30;;;17.40;99.90;;;;;;5079391;28;20111;-65
2022/05/15 07:25:35;;;;;;;14.02;4.30;;;17.50;99.90;;;;;;5083404;28;20473;-62
2022/05/15 07:28:00;;;;;;;16.00;4.82;;;17.60;99.90;;;;;;5085805;28;20047;-62
2022/05/15 07:30:26;;;;;;;12.07;3.45;;;17.70;99.90;;;;;;5087653;28;20529;-62
2022/05/15 07:32:51;;;;;;;18.85;3.95;;;17.80;99.90;;;;;;5085492;28;20066;-64
2022/05/15 07:35:18;;;;;;;12.85;3.97;;;17.90;99.90;;;;;;5081998;28;20028;-64
2022/05/15 07:37:44;;;;;;;12.02;4.05;;;18.10;99.90;;;;;;5087143;28;20141;-64
2022/05/15 07:40:11;;;;;;;15.23;4.00;;;18.30;99.90;;;;;;5084245;28;20405;-64
2022/05/15 07:42:38;;;;;;;11.73;3.30;;;18.30;99.50;;;;;;5087436;28;20397;-64
2022/05/15 07:45:04;;;;;;;11.10;3.60;;;18.40;99.30;;;;;;5083484;28;20044;-63
2022/05/15 07:47:30;;;;;;;13.68;4.20;;;18.60;99.40;;;;;;5086208;28;20051;-63
2022/05/15 07:49:56;;;;;;;13.57;3.70;;;18.70;99.10;;;;;;5082503;28;20052;-62
2022/05/15 07:52:22;;;;;;;15.02;3.97;;;18.70;98.40;;;;;;5082609;28;20112;-64
2022/05/15 07:54:49;;;;;;;11.50;3.50;;;18.90;98.30;;;;;;5079829;28;20044;-62
2022/05/15 07:57:15;;;;;;;12.50;3.72;;;18.90;97.90;;;;;;5086611;28;20048;-63
2022/05/15 07:59:40;;;;;;;11.40;4.07;;;19.00;97.80;;;;;;5081565;28;20075;-66
2022/05/15 08:02:06;;;;;;;12.60;3.70;;;19.00;97.00;;;;;;5083477;28;20044;-63
2022/05/15 08:10:02;;;;;;;19.07;4.33;;;19.10;96.00;;;;;;5080160;28;20532;-65
2022/05/15 08:12:28;;;;;;;13.50;3.95;;;19.30;97.10;;;;;;5084731;28;20301;-68
2022/05/15 08:14:53;;;;;;;11.60;4.07;;;19.40;96.50;;;;;;5084798;28;20043;-65
2022/05/15 08:17:19;;;;;;;12.27;3.28;;;19.50;96.10;;;;;;5078580;28;20032;-65
2022/05/15 08:25:13;;;;;;;14.57;3.70;;;19.80;95.20;;;;;;5085487;28;20364;-65
2022/05/15 08:27:39;;;;;;;12.27;3.17;;;19.80;94.40;;;;;;5078954;28;20262;-65
2022/05/15 08:30:05;;;;;;;11.85;3.50;;;19.90;94.40;;;;;;5079718;28;20178;-65
2022/05/15 08:32:31;;;;;;;13.32;4.05;;;19.90;93.40;;;;;;5085917;28;20059;-67
2022/05/15 08:35:00;;;;;;;13.85;3.72;;;20.00;93.60;;;;;;5088088;28;20059;-64
2022/05/15 08:37:25;;;;;;;12.10;3.45;;;20.10;93.00;;;;;;5087187;28;20505;-65
2022/05/15 08:39:51;;;;;;;13.48;3.78;;;20.20;93.50;;;;;;5088586;28;20044;-65
2022/05/15 08:42:22;;;;;;;16.30;4.07;;;20.30;92.80;;;;;;5082386;28;20504;-65
2022/05/15 08:44:49;;;;;;;12.40;3.25;;;20.40;91.10;;;;;;5079213;28;20043;-66
2022/05/15 08:47:22;;;;;;;13.25;3.63;;;20.50;91.30;;;;;;5071631;28;20088;-65
2022/05/15 08:49:53;;;;;;;12.77;3.53;;;20.60;91.10;;;;;;5082877;28;20047;-67
2022/05/15 08:52:36;;;;;;;14.18;3.92;;;20.70;90.50;;;;;;5086621;28;20048;-65
2022/05/15 08:55:16;;;;;;;9.95;3.22;;;20.80;90.20;;;;;;5080435;28;20139;-67
2022/05/15 08:57:48;;;;;;;12.18;3.97;;;20.80;87.80;;;;;;5082606;28;20074;-65
2022/05/15 09:00:16;;;;;;;11.88;3.58;;;20.70;86.60;;;;;;5083334;28;20138;-65
2022/05/15 09:02:43;;;;;;;13.95;3.75;;;20.80;86.20;;;;;;5084513;28;20087;-65
2022/05/15 09:05:11;;;;;;;14.82;4.05;;;20.80;85.80;;;;;;5083512;28;20466;-65
2022/05/15 09:07:58;;;;;;;14.63;3.83;;;20.90;86.60;;;;;;5084796;28;20119;-65
2022/05/15 09:11:07;;;;;;;12.75;3.63;;;21.00;85.50;;;;;;5071373;28;20039;-65
2022/05/15 09:13:51;;;;;;;12.68;4.40;;;21.10;85.00;;;;;;5039299;28;20230;-65
2022/05/15 09:16:22;;;;;;;13.93;3.35;;;21.20;86.10;;;;;;5043047;28;20467;-66
2022/05/15 09:18:49;;;;;;;12.07;3.60;;;21.30;83.80;;;;;;5058748;28;20078;-66
2022/05/15 09:21:16;;;;;;;15.48;3.88;;;21.40;83.60;;;;;;5077110;28;20044;-66
2022/05/15 09:23:48;;;;;;;14.02;4.03;;;21.50;84.10;;;;;;5076134;28;20051;-65
2022/05/15 09:26:40;;;;;;;12.73;3.53;;;21.50;82.20;;;;;;5080931;28;20151;-65
2022/05/15 09:29:14;;;;;;;14.02;3.67;;;21.70;82.70;;;;;;5082005;28;20032;-65
2022/05/15 09:31:44;;;;;;;15.20;3.58;;;21.60;80.50;;;;;;5085770;28;20569;-68
2022/05/15 09:34:26;;;;;;;14.15;3.60;;;21.60;79.20;;;;;;5085696;28;20032;-65
2022/05/15 09:38:26;;;;;;;12.13;3.92;;;21.70;80.10;;;;;;5083764;28;20363;-66
2022/05/15 09:39:43;;;;;;;16.98;4.15;;;21.80;79.40;;;;;;5085512;28;20075;-65
2022/05/15 09:45:07;;;;;;;14.60;3.92;;;21.90;73.30;;;;;;5085046;28;20109;-66
2022/05/15 09:47:45;;;;;;;12.68;3.60;;;22.00;75.80;;;;;;5088524;28;20040;-65
2022/05/15 09:50:52;;;;;;;14.68;4.07;;;22.00;73.70;;;;;;5083311;28;20051;-66
2022/05/15 09:53:26;;;;;;;13.90;3.50;;;21.90;74.00;;;;;;5081047;28;20493;-68
2022/05/15 09:56:03;;;;;;;11.45;3.60;;;21.90;74.80;;;;;;5082686;28;20101;-66
2022/05/15 09:58:39;;;;;;;14.23;3.85;;;21.80;74.10;;;;;;5089190;28;20052;-66
2022/05/15 10:01:22;;;;;;;13.68;3.80;;;21.80;74.70;;;;;;5083081;28;20214;-66
2022/05/15 10:03:53;;;;;;;17.60;3.90;;;21.80;75.00;;;;;;5082610;28;20055;-66
2022/05/15 10:06:23;;;;;;;16.30;3.80;;;21.90;74.60;;;;;;5088524;28;20518;-66
2022/05/15 10:09:11;;;;;;;13.68;3.55;;;22.00;73.70;;;;;;5088277;28;20044;-66
2022/05/15 10:11:45;;;;;;;13.00;4.05;;;22.10;72.40;;;;;;5074513;28;20424;-65
2022/05/15 10:14:36;;;;;;;14.57;3.67;;;22.20;71.80;;;;;;5086856;28;20122;-66
2022/05/15 10:17:02;;;;;;;14.77;3.97;;;22.30;70.80;;;;;;5077899;28;20381;-67
2022/05/15 10:19:49;;;;;;;15.07;3.95;;;22.40;71.10;;;;;;5084929;28;20067;-65
2022/05/15 10:22:36;;;;;;;13.35;3.67;;;22.50;70.40;;;;;;5080641;28;20040;-65
2022/05/15 10:25:38;;;;;;;12.80;3.90;;;22.70;71.10;;;;;;5079722;28;20435;-67
2022/05/15 10:28:18;;;;;;;13.18;3.80;;;22.80;69.30;;;;;;5078441;28;20049;-65
2022/05/15 10:30:53;;;;;;;11.68;3.22;;;22.90;68.50;;;;;;5086295;28;20047;-68
2022/05/15 10:33:19;;;;;;;12.88;3.50;;;22.90;70.20;;;;;;5079781;28;20047;-68
2022/05/15 10:36:00;;;;;;;11.50;3.40;;;23.00;67.70;;;;;;5084800;28;20041;-65
2022/05/15 10:38:43;;;;;;;13.35;3.53;;;23.00;62.90;;;;;;5082662;28;20135;-66
2022/05/15 10:41:26;;;;;;;12.82;3.50;;;22.90;63.20;;;;;;5083008;28;20135;-65
2022/05/15 10:44:13;;;;;;;14.40;4.00;;;22.90;64.30;;;;;;5078964;28;20076;-65
2022/05/15 10:46:50;;;;;;;11.95;3.75;;;22.80;63.00;;;;;;5088036;28;20180;-65
2022/05/15 10:49:47;;;;;;;13.55;3.83;;;22.90;64.10;;;;;;5087077;28;20390;-66
2022/05/15 10:52:37;;;;;;;13.02;3.83;;;23.00;64.30;;;;;;5083153;28;20052;-66
2022/05/15 10:57:59;;;;;;;13.95;3.85;;;23.40;63.60;;;;;;5084455;28;20528;-65
2022/05/15 11:00:49;;;;;;;11.13;3.70;;;23.40;62.50;;;;;;5084905;28;20055;-65
2022/05/15 11:03:33;;;;;;;13.82;3.63;;;23.40;61.50;;;;;;5078128;28;20043;-66
2022/05/15 11:06:24;;;;;;;16.63;3.35;;;23.40;62.10;;;;;;5071799;28;20075;-65
2022/05/15 11:08:58;;;;;;;10.68;3.55;;;23.40;61.40;;;;;;5081956;28;20047;-63
2022/05/15 11:11:38;;;;;;;15.73;3.85;;;23.40;60.10;;;;;;5080269;28;20065;-64
2022/05/15 11:14:25;;;;;;;10.05;3.15;;;23.40;59.40;;;;;;5085493;28;20067;-63
2022/05/15 11:17:04;;;;;;;10.90;3.22;;;23.40;58.70;;;;;;5082030;28;20105;-64
2022/05/15 11:19:40;;;;;;;12.48;3.38;;;23.30;58.10;;;;;;5084136;28;20446;-63
2022/05/15 11:22:31;;;;;;;13.57;3.53;;;23.40;58.50;;;;;;5084263;28;20069;-63
2022/05/15 11:25:00;;;;;;;12.80;3.70;;;23.50;58.60;;;;;;5083834;28;20040;-64
2022/05/15 11:27:34;;;;;;;14.15;3.60;;;23.60;58.10;;;;;;5088606;28;20039;-63
2022/05/15 11:30:07;;;;;;;12.05;3.53;;;23.60;57.00;;;;;;5087950;28;20142;-63
2022/05/15 11:33:01;;;;;;;13.20;3.20;;;23.70;57.60;;;;;;5089772;28;20044;-61
2022/05/15 11:35:33;;;;;;;12.25;3.50;;;23.80;58.80;;;;;;5082468;28;20830;-62
2022/05/15 11:37:58;;;;;;;13.60;3.95;;;23.80;56.90;;;;;;5084543;28;20040;-62
2022/05/15 11:40:32;;;;;;;11.68;3.65;;;23.80;58.20;;;;;;5089904;28;20097;-63
2022/05/15 11:42:58;;;;;;;9.98;3.40;;;23.80;58.00;;;;;;5087293;28;20084;-62
2022/05/15 11:45:34;;;;;;;11.43;3.38;;;24.00;59.50;;;;;;5087091;28;20036;-63
2022/05/15 11:48:13;;;;;;;13.68;3.55;;;24.10;60.00;;;;;;5083941;28;20331;-63
2022/05/15 11:50:55;;;;;;;15.65;3.65;;;24.10;59.70;;;;;;5088339;28;20093;-64
2022/05/15 11:53:30;;;;;;;9.82;3.08;;;24.10;57.70;;;;;;5081458;28;20040;-63
2022/05/15 11:55:56;;;;;;;12.40;3.40;;;24.10;55.50;;;;;;5082230;28;20159;-64
2022/05/15 11:58:36;;;;;;;11.65;3.33;;;24.10;57.00;;;;;;5077455;28;20134;-63
2022/05/15 12:01:25;;;;;;;9.45;3.40;;;24.10;57.10;;;;;;5084084;28;20047;-64
2022/05/15 12:03:59;;;;;;;11.27;3.22;;;24.20;57.50;;;;;;5052580;28;20063;-63
2022/05/15 12:06:28;;;;;;;13.18;3.60;;;24.20;56.10;;;;;;5078138;28;20048;-63
2022/05/15 12:09:16;;;;;;;13.65;3.65;;;24.10;56.90;;;;;;5083309;28;21720;-63
2022/05/15 12:11:45;;;;;;;12.15;3.60;;;24.10;56.10;;;;;;5072236;28;20052;-63
2022/05/15 12:14:22;;;;;;;14.07;4.00;;;24.10;56.40;;;;;;5083490;28;20048;-63
2022/05/15 12:16:51;;;;;;;12.15;3.08;;;24.20;55.60;;;;;;5082792;28;20050;-62
2022/05/15 12:19:28;;;;;;;12.43;3.28;;;24.20;56.50;;;;;;5078426;28;20049;-62
2022/05/15 12:21:57;;;;;;;11.85;3.20;;;24.20;56.80;;;;;;5081929;28;20063;-62
2022/05/15 12:24:33;;;;;;;10.73;2.95;;;24.20;55.50;;;;;;5084371;28;20266;-62
2022/05/15 12:26:58;;;;;;;15.52;3.35;;;24.10;54.70;;;;;;5072132;28;20443;-62
2022/05/15 12:29:39;;;;;;;10.68;3.58;;;24.20;55.50;;;;;;5082538;28;20133;-63
2022/05/15 12:32:20;;;;;;;14.10;3.97;;;24.20;54.90;;;;;;5085380;28;20047;-63
2022/05/15 12:34:49;;;;;;;9.90;3.10;;;24.30;55.00;;;;;;5085482;28;20048;-63
2022/05/15 12:37:22;;;;;;;12.77;3.63;;;24.20;55.30;;;;;;5082488;28;20036;-63
2022/05/15 12:39:51;;;;;;;13.23;3.20;;;24.40;56.60;;;;;;5083667;28;20037;-63
2022/05/15 12:42:38;;;;;;;11.50;3.72;;;24.50;56.70;;;;;;5083036;28;20056;-62
2022/05/15 12:45:10;;;;;;;13.07;3.45;;;24.50;54.60;;;;;;5084251;28;20036;-64
2022/05/15 12:47:37;;;;;;;11.13;3.88;;;24.50;54.60;;;;;;5083762;28;20075;-63
2022/05/15 12:50:15;;;;;;;13.52;3.40;;;24.60;54.40;;;;;;5085017;28;20069;-65
2022/05/15 12:52:40;;;;;;;12.90;3.45;;;24.60;53.80;;;;;;5084447;28;20036;-63
2022/05/15 12:55:10;;;;;;;11.40;3.50;;;24.60;53.80;;;;;;5085934;28;20097;-63
2022/05/15 12:57:45;;;;;;;13.25;3.20;;;24.50;53.30;;;;;;5079074;28;20426;-63
2022/05/15 13:00:16;;;;;;;14.98;3.97;;;24.60;53.90;;;;;;5084551;28;20036;-63
2022/05/15 13:02:43;;;;;;;13.88;3.70;;;24.70;53.60;;;;;;5083934;28;20366;-62
2022/05/15 13:05:30;;;;;;;17.27;3.35;;;24.60;52.90;;;;;;5075827;28;20486;-64
2022/05/15 13:07:59;;;;;;;10.88;3.15;;;24.70;53.00;;;;;;5078951;28;20040;-61
2022/05/15 13:10:26;;;;;;;12.18;2.97;;;24.80;53.90;;;;;;5074102;28;20064;-64
2022/05/15 13:12:55;;;;;;;9.43;2.85;;;24.80;53.20;;;;;;5078850;28;20529;-63
2022/05/15 13:15:27;;;;;;;12.35;3.20;;;24.80;52.00;;;;;;5086980;28;20066;-63